Gold Beach, Oregon
Current Conditions -  °F | °C
As of 12:02 AM on Saturday 20 Dec 2014 (Local Time) from KBOK Reporting Station
Moderate Rain Moderate Rain  
Wind Chill: 52°   Ceiling: 300
Heat Index: 52°   Visibility: 2.5mi
Dew Point: 52°   Wind: 14mph
Humidity: 100%   Direction: 160°SSE
Pressure: 30"   Gusts: 22mph
Location:  42.41°N, 124.42°W
Report Text: KBOK 200802Z AUTO 16012G19KT 2 1/2SM RA BR BKN003 OVC007 11/11 A3000 RMK AO2 CIG 001V006 P0001
Loading
Personal Weather Stations






























Interactive Weather Map New forecast layout! Learn more

10-Day Weather Forecast

Advertisements
Track Severe Weather on mobile